Time;durP1;ratioP1;P1;durP2;ratioP2;P2;SDS_P1;SDS_P2;PMS_P1;PMS_P2;Temp;Humidity;BMP_temperature;BMP_pressure;BME280_temperature;BME280_humidity;BME280_pressure;Samples;Min_cycle;Max_cycle;Signal;HPM_P1;HPM_P2
2023/12/18 00:03:55;;;;;;;51.55;33.28;;;;;;;;;;10176897;29;20447;-80
2023/12/18 00:08:57;;;;;;;54.20;34.97;;;;;;;;;;10195962;28;20479;-80
2023/12/18 00:14:02;;;;;;;55.30;35.05;;;;;;;;;;10185409;29;20843;-80
2023/12/18 00:19:05;;;;;;;54.47;35.60;;;;;;;;;;10193093;29;20463;-82
2023/12/18 00:24:08;;;;;;;53.33;36.08;;;;;;;;;;10195485;29;20524;-81
2023/12/18 00:29:11;;;;;;;57.90;36.97;;;;;;;;;;10203533;28;20423;-82
2023/12/18 00:34:14;;;;;;;56.70;36.97;;;;;;;;;;10198827;29;20423;-82
2023/12/18 00:39:16;;;;;;;56.30;36.72;;;;;;;;;;10196023;29;20565;-81
2023/12/18 00:44:20;;;;;;;58.20;36.10;;;;;;;;;;10197826;29;20418;-82
2023/12/18 00:49:22;;;;;;;61.67;38.40;;;;;;;;;;10192162;29;20445;-82
2023/12/18 00:54:24;;;;;;;55.23;35.67;;;;;;;;;;10196456;29;21254;-81
2023/12/18 00:59:28;;;;;;;68.93;41.92;;;;;;;;;;10182681;29;20457;-82
2023/12/18 01:04:30;;;;;;;65.20;40.33;;;;;;;;;;10198012;29;20455;-82
2023/12/18 01:09:33;;;;;;;65.43;40.53;;;;;;;;;;10196677;29;20414;-82
2023/12/18 01:14:37;;;;;;;67.82;40.47;;;;;;;;;;10201533;28;20409;-81
2023/12/18 01:19:39;;;;;;;62.45;39.15;;;;;;;;;;10200155;29;20432;-82
2023/12/18 01:24:42;;;;;;;60.33;37.90;;;;;;;;;;10194070;29;20975;-82
2023/12/18 01:29:45;;;;;;;57.77;36.90;;;;;;;;;;10192449;29;20449;-82
2023/12/18 01:34:48;;;;;;;65.70;40.73;;;;;;;;;;10193899;29;20489;-81
2023/12/18 01:39:50;;;;;;;58.05;38.40;;;;;;;;;;10192447;29;20475;-81
2023/12/18 01:44:54;;;;;;;62.88;39.30;;;;;;;;;;10201831;29;20471;-82
2023/12/18 01:49:56;;;;;;;62.15;38.78;;;;;;;;;;10195584;29;20425;-82
2023/12/18 01:54:59;;;;;;;59.63;37.17;;;;;;;;;;10197637;29;20453;-82
2023/12/18 02:00:04;;;;;;;55.47;35.90;;;;;;;;;;10190174;28;20495;-81
2023/12/18 02:05:06;;;;;;;51.42;34.00;;;;;;;;;;10198811;29;20503;-82
2023/12/18 02:10:09;;;;;;;48.35;32.15;;;;;;;;;;10195426;28;20522;-82
2023/12/18 02:15:13;;;;;;;50.13;32.65;;;;;;;;;;10194589;29;20520;-82
2023/12/18 02:20:16;;;;;;;57.75;35.20;;;;;;;;;;10195922;29;20461;-81
2023/12/18 02:25:20;;;;;;;63.58;35.92;;;;;;;;;;10197237;29;20447;-82
2023/12/18 02:30:23;;;;;;;60.93;36.43;;;;;;;;;;10204998;29;20416;-82
2023/12/18 02:35:26;;;;;;;68.68;40.42;;;;;;;;;;10199836;29;20445;-82
2023/12/18 02:40:30;;;;;;;67.15;40.10;;;;;;;;;;10199055;28;20520;-82
2023/12/18 02:45:33;;;;;;;60.00;39.22;;;;;;;;;;10200397;29;20491;-81
2023/12/18 02:50:35;;;;;;;60.93;38.03;;;;;;;;;;10196915;29;20512;-81
2023/12/18 02:55:39;;;;;;;55.47;34.63;;;;;;;;;;10198739;29;20442;-81
2023/12/18 03:00:41;;;;;;;53.28;33.50;;;;;;;;;;10193107;29;20951;-80
2023/12/18 03:05:44;;;;;;;48.67;30.73;;;;;;;;;;10201119;29;20449;-81
2023/12/18 03:10:48;;;;;;;48.53;30.33;;;;;;;;;;10201006;29;20905;-82
2023/12/18 03:15:50;;;;;;;44.45;29.48;;;;;;;;;;10198446;29;21045;-82
2023/12/18 03:20:52;;;;;;;47.20;29.63;;;;;;;;;;10196888;29;20434;-82
2023/12/18 03:25:56;;;;;;;47.05;29.92;;;;;;;;;;10200302;28;20512;-81
2023/12/18 03:30:58;;;;;;;48.90;31.60;;;;;;;;;;10197896;29;20416;-79
2023/12/18 03:36:01;;;;;;;47.20;29.63;;;;;;;;;;10201765;28;20501;-83
2023/12/18 03:41:05;;;;;;;50.27;30.80;;;;;;;;;;10201389;29;20553;-82
2023/12/18 03:46:07;;;;;;;49.10;32.20;;;;;;;;;;10192316;29;20765;-81
2023/12/18 03:51:11;;;;;;;47.53;30.60;;;;;;;;;;10201500;29;20788;-81
2023/12/18 03:56:15;;;;;;;47.05;30.25;;;;;;;;;;10193872;29;20505;-82
2023/12/18 04:01:17;;;;;;;46.88;31.92;;;;;;;;;;10176921;29;20467;-81
2023/12/18 04:06:19;;;;;;;49.60;32.40;;;;;;;;;;10188494;29;20439;-81
2023/12/18 04:11:23;;;;;;;47.92;31.20;;;;;;;;;;10190325;29;20414;-82
2023/12/18 04:16:26;;;;;;;49.03;31.30;;;;;;;;;;10189907;29;20445;-82
2023/12/18 04:21:28;;;;;;;51.45;31.30;;;;;;;;;;10179276;29;20493;-80
2023/12/18 04:26:32;;;;;;;50.73;32.73;;;;;;;;;;10197459;29;20440;-81
2023/12/18 04:31:34;;;;;;;45.67;31.33;;;;;;;;;;10194016;28;20499;-80
2023/12/18 04:36:38;;;;;;;45.53;30.00;;;;;;;;;;10184047;29;20481;-81
2023/12/18 04:41:44;;;;;;;44.07;29.20;;;;;;;;;;10186461;29;20471;-81
2023/12/18 04:46:47;;;;;;;45.27;27.93;;;;;;;;;;10184656;29;20439;-82
2023/12/18 04:51:49;;;;;;;41.27;27.03;;;;;;;;;;10189837;29;20480;-82
2023/12/18 04:56:53;;;;;;;44.88;28.33;;;;;;;;;;10187549;29;20416;-82
2023/12/18 05:01:55;;;;;;;44.57;27.47;;;;;;;;;;10193498;28;20524;-81
2023/12/18 05:06:58;;;;;;;42.60;27.17;;;;;;;;;;10185799;29;20423;-81
2023/12/18 05:12:02;;;;;;;40.33;26.47;;;;;;;;;;10184843;29;20459;-82
2023/12/18 05:17:04;;;;;;;41.93;25.87;;;;;;;;;;10191837;29;20406;-81
2023/12/18 05:22:07;;;;;;;39.92;24.25;;;;;;;;;;10199118;29;20521;-82
2023/12/18 05:27:10;;;;;;;39.73;23.80;;;;;;;;;;10200928;29;20786;-81
2023/12/18 05:32:13;;;;;;;27.98;19.17;;;;;;;;;;10201601;29;20848;-82
2023/12/18 05:37:15;;;;;;;28.33;17.67;;;;;;;;;;10203945;29;20418;-82
2023/12/18 05:42:20;;;;;;;30.98;20.65;;;;;;;;;;10201139;29;20469;-81
2023/12/18 05:47:22;;;;;;;28.98;19.58;;;;;;;;;;10194865;29;20421;-81
2023/12/18 05:52:26;;;;;;;29.25;18.20;;;;;;;;;;10199490;29;20448;-80
2023/12/18 05:57:30;;;;;;;29.80;17.50;;;;;;;;;;10196251;29;20495;-80
2023/12/18 06:02:33;;;;;;;24.87;15.53;;;;;;;;;;10183319;29;20526;-80
2023/12/18 06:07:35;;;;;;;27.42;16.65;;;;;;;;;;10186073;29;20414;-81
2023/12/18 06:12:39;;;;;;;25.80;16.37;;;;;;;;;;10192269;29;20503;-81
2023/12/18 06:17:41;;;;;;;34.80;20.10;;;;;;;;;;10178536;29;20440;-81
2023/12/18 06:22:44;;;;;;;33.38;22.33;;;;;;;;;;10188788;29;20463;-81
2023/12/18 06:27:48;;;;;;;38.38;24.63;;;;;;;;;;10184244;29;20448;-81
2023/12/18 06:32:50;;;;;;;42.20;26.27;;;;;;;;;;10194378;29;20457;-81
2023/12/18 06:37:53;;;;;;;40.83;25.05;;;;;;;;;;10190750;29;20504;-80
2023/12/18 06:42:56;;;;;;;34.75;22.83;;;;;;;;;;10185320;29;20468;-81
2023/12/18 06:47:59;;;;;;;40.50;22.90;;;;;;;;;;10184355;29;20483;-81
2023/12/18 06:53:02;;;;;;;37.30;22.13;;;;;;;;;;10186783;29;20459;-82
2023/12/18 06:58:06;;;;;;;39.28;24.15;;;;;;;;;;10184789;29;20459;-84
2023/12/18 07:03:08;;;;;;;39.53;25.23;;;;;;;;;;10189053;29;20457;-84
2023/12/18 07:08:10;;;;;;;43.87;26.47;;;;;;;;;;10208979;29;20478;-84
2023/12/18 07:13:15;;;;;;;39.03;25.25;;;;;;;;;;10202221;29;20775;-84
2023/12/18 07:18:17;;;;;;;36.25;24.08;;;;;;;;;;10199441;28;20444;-85
2023/12/18 07:23:19;;;;;;;35.15;21.13;;;;;;;;;;10201350;29;20468;-84
2023/12/18 07:28:23;;;;;;;26.75;18.33;;;;;;;;;;10194293;29;20433;-85
2023/12/18 07:33:26;;;;;;;30.30;17.77;;;;;;;;;;10203204;29;20413;-84
2023/12/18 07:38:28;;;;;;;26.07;17.43;;;;;;;;;;10199241;29;20419;-84
2023/12/18 07:43:32;;;;;;;30.52;19.73;;;;;;;;;;10190384;29;20998;-84
2023/12/18 07:48:34;;;;;;;34.13;19.95;;;;;;;;;;10189023;29;20524;-84
2023/12/18 07:53:36;;;;;;;83.73;40.93;;;;;;;;;;10190186;29;20420;-84
2023/12/18 07:58:41;;;;;;;69.38;34.75;;;;;;;;;;10193315;28;20431;-85
2023/12/18 08:03:43;;;;;;;50.53;28.60;;;;;;;;;;10188452;28;20518;-84
2023/12/18 08:08:46;;;;;;;38.53;25.87;;;;;;;;;;10179438;29;20459;-83
2023/12/18 08:13:49;;;;;;;45.22;27.63;;;;;;;;;;10190001;29;20431;-83
2023/12/18 08:18:52;;;;;;;47.28;28.10;;;;;;;;;;10203891;29;21002;-85
2023/12/18 08:23:54;;;;;;;43.00;26.50;;;;;;;;;;10190189;29;20498;-83
2023/12/18 08:28:58;;;;;;;46.83;28.30;;;;;;;;;;10193927;28;20447;-85
2023/12/18 08:34:01;;;;;;;42.28;26.75;;;;;;;;;;10186032;29;20487;-85
2023/12/18 08:39:08;;;;;;;39.60;25.48;;;;;;;;;;10189741;29;20777;-84
2023/12/18 08:44:12;;;;;;;34.58;22.13;;;;;;;;;;10189660;29;20548;-85
2023/12/18 08:49:14;;;;;;;35.30;21.80;;;;;;;;;;10189343;29;20444;-85
2023/12/18 08:54:16;;;;;;;36.20;23.38;;;;;;;;;;10189437;29;20438;-84
2023/12/18 08:59:20;;;;;;;34.40;23.10;;;;;;;;;;10182905;29;21045;-84
2023/12/18 09:04:23;;;;;;;36.47;24.97;;;;;;;;;;10188263;29;21016;-86
2023/12/18 09:09:26;;;;;;;39.10;25.45;;;;;;;;;;10190418;29;20430;-85
2023/12/18 09:44:50;;;;;;;35.90;22.35;;;;;;;;;;10213914;28;21047;-85
2023/12/18 09:49:54;;;;;;;30.00;21.03;;;;;;;;;;10224600;28;20453;-82
2023/12/18 09:54:56;;;;;;;32.83;20.30;;;;;;;;;;10231019;28;20444;-86
2023/12/18 10:00:00;;;;;;;30.25;20.50;;;;;;;;;;10231573;28;20992;-84
2023/12/18 10:05:03;;;;;;;34.35;21.63;;;;;;;;;;10225214;28;20461;-84
2023/12/18 10:10:05;;;;;;;31.90;20.50;;;;;;;;;;10223048;28;20498;-83
2023/12/18 10:15:11;;;;;;;35.72;23.27;;;;;;;;;;10226498;28;20512;-84
2023/12/18 10:20:15;;;;;;;33.67;23.83;;;;;;;;;;10223106;28;20461;-84
2023/12/18 10:25:17;;;;;;;37.75;25.05;;;;;;;;;;10227486;28;20936;-84
2023/12/18 10:30:25;;;;;;;38.53;25.03;;;;;;;;;;10225445;28;20902;-83
2023/12/18 10:35:28;;;;;;;38.55;25.77;;;;;;;;;;10224085;28;20922;-83
2023/12/18 10:40:30;;;;;;;41.90;27.07;;;;;;;;;;10228107;28;20428;-83
2023/12/18 10:45:35;;;;;;;40.38;26.65;;;;;;;;;;10226260;28;20503;-82
2023/12/18 10:50:37;;;;;;;34.90;22.65;;;;;;;;;;10230208;28;20505;-82
2023/12/18 10:55:42;;;;;;;34.95;19.85;;;;;;;;;;10229971;28;20522;-82
2023/12/18 11:00:46;;;;;;;29.10;20.17;;;;;;;;;;10229746;28;20472;-81
2023/12/18 11:05:50;;;;;;;25.65;17.75;;;;;;;;;;10227289;28;20470;-82
2023/12/18 11:10:54;;;;;;;30.73;20.30;;;;;;;;;;10225728;28;20511;-81
2023/12/18 11:16:08;;;;;;;49.30;30.35;;;;;;;;;;10230736;28;20456;-82
2023/12/18 11:21:10;;;;;;;29.17;20.37;;;;;;;;;;10219215;28;20991;-81
2023/12/18 11:26:14;;;;;;;29.48;18.42;;;;;;;;;;10229258;28;20522;-82
2023/12/18 11:31:20;;;;;;;31.55;17.77;;;;;;;;;;10231808;28;20452;-81
2023/12/18 11:36:23;;;;;;;28.50;17.30;;;;;;;;;;10219887;28;20444;-82
2023/12/18 11:41:44;;;;;;;28.58;17.38;;;;;;;;;;10221368;28;20448;-82
2023/12/18 11:46:51;;;;;;;25.67;15.35;;;;;;;;;;10222056;28;20461;-81
2023/12/18 11:51:53;;;;;;;26.80;18.27;;;;;;;;;;10218976;28;20864;-82
2023/12/18 11:56:57;;;;;;;27.90;17.17;;;;;;;;;;10216076;28;20520;-81
2023/12/18 12:02:01;;;;;;;28.15;17.33;;;;;;;;;;10224526;28;20460;-81
2023/12/18 12:07:03;;;;;;;31.23;21.13;;;;;;;;;;10217496;28;20444;-81
2023/12/18 12:12:06;;;;;;;23.30;14.88;;;;;;;;;;10228963;28;20925;-80
2023/12/18 12:17:10;;;;;;;25.00;15.10;;;;;;;;;;10226587;28;21000;-82
2023/12/18 12:22:12;;;;;;;25.10;16.25;;;;;;;;;;10228779;28;20528;-82
2023/12/18 12:27:15;;;;;;;25.73;15.73;;;;;;;;;;10231307;28;20509;-82
2023/12/18 12:32:20;;;;;;;21.55;14.50;;;;;;;;;;10219849;28;20551;-83
2023/12/18 12:37:23;;;;;;;27.10;16.50;;;;;;;;;;10228166;28;20818;-82
2023/12/18 12:42:26;;;;;;;28.13;15.80;;;;;;;;;;10225524;28;20461;-83
2023/12/18 12:47:30;;;;;;;24.95;16.17;;;;;;;;;;10205376;28;20485;-83
2023/12/18 12:52:35;;;;;;;24.83;16.50;;;;;;;;;;10209985;28;21364;-82
2023/12/18 12:57:38;;;;;;;24.27;16.08;;;;;;;;;;10201592;28;20485;-82
2023/12/18 13:02:41;;;;;;;25.17;15.80;;;;;;;;;;10207570;28;20479;-82
2023/12/18 13:07:44;;;;;;;22.35;15.13;;;;;;;;;;10201544;28;20449;-80
2023/12/18 13:12:46;;;;;;;23.48;15.65;;;;;;;;;;10200921;28;21029;-82
2023/12/18 13:17:50;;;;;;;20.15;14.45;;;;;;;;;;10203595;28;20449;-81
2023/12/18 13:22:52;;;;;;;22.02;14.15;;;;;;;;;;10201050;28;21315;-82
2023/12/18 13:27:55;;;;;;;24.60;14.75;;;;;;;;;;10205685;28;20443;-81
2023/12/18 13:32:59;;;;;;;23.33;14.38;;;;;;;;;;10194223;28;20485;-82
2023/12/18 13:38:01;;;;;;;25.67;14.57;;;;;;;;;;10202510;28;20452;-81
2023/12/18 13:43:04;;;;;;;20.30;14.75;;;;;;;;;;10229939;28;20857;-81
2023/12/18 13:48:09;;;;;;;22.08;13.95;;;;;;;;;;10230917;23;20896;-86
2023/12/18 13:53:11;;;;;;;23.67;14.23;;;;;;;;;;10202004;29;20446;-86
2023/12/18 13:58:14;;;;;;;20.67;14.20;;;;;;;;;;10186444;28;20556;-84
2023/12/18 14:03:18;;;;;;;23.20;14.15;;;;;;;;;;10196630;28;20454;-84
2023/12/18 14:08:20;;;;;;;22.10;14.13;;;;;;;;;;10195550;28;20450;-83
2023/12/18 14:13:22;;;;;;;21.02;15.60;;;;;;;;;;10191126;28;20524;-84
2023/12/18 14:18:26;;;;;;;23.17;15.50;;;;;;;;;;10199031;28;20993;-83
2023/12/18 14:23:28;;;;;;;20.73;14.98;;;;;;;;;;10190304;29;20544;-83
2023/12/18 14:28:31;;;;;;;21.73;14.97;;;;;;;;;;10196792;28;20453;-84
2023/12/18 14:33:35;;;;;;;20.00;13.80;;;;;;;;;;10186075;28;20545;-83
2023/12/18 14:38:37;;;;;;;19.73;14.30;;;;;;;;;;10187673;28;20462;-85
2023/12/18 14:43:40;;;;;;;21.17;13.97;;;;;;;;;;10191692;28;20513;-86
2023/12/18 14:48:44;;;;;;;20.77;14.63;;;;;;;;;;10196264;28;20516;-85
2023/12/18 14:53:46;;;;;;;22.13;15.40;;;;;;;;;;10193645;28;21038;-85
2023/12/18 14:58:49;;;;;;;21.77;14.57;;;;;;;;;;10193153;28;20525;-84
2023/12/18 15:03:54;;;;;;;23.38;15.15;;;;;;;;;;10201653;28;20514;-85
2023/12/18 15:08:57;;;;;;;21.67;15.60;;;;;;;;;;10191207;28;20452;-84
2023/12/18 15:14:00;;;;;;;27.40;17.30;;;;;;;;;;10198838;28;21212;-84
2023/12/18 15:19:04;;;;;;;22.33;15.60;;;;;;;;;;10200867;28;20460;-84
2023/12/18 15:24:07;;;;;;;28.35;16.02;;;;;;;;;;10202342;28;20520;-84
2023/12/18 15:29:09;;;;;;;25.80;17.90;;;;;;;;;;10212440;28;20510;-85
2023/12/18 15:34:13;;;;;;;30.77;19.67;;;;;;;;;;10204887;28;21131;-83
2023/12/18 15:39:16;;;;;;;25.15;16.40;;;;;;;;;;10212720;28;20469;-84
2023/12/18 15:44:18;;;;;;;22.38;15.18;;;;;;;;;;10203836;28;20505;-84
2023/12/18 15:49:25;;;;;;;26.50;15.83;;;;;;;;;;10213883;28;20448;-83
2023/12/18 15:54:28;;;;;;;27.60;17.92;;;;;;;;;;10207907;28;20437;-83
2023/12/18 15:59:30;;;;;;;38.83;22.50;;;;;;;;;;10204645;28;20465;-84
2023/12/18 16:04:34;;;;;;;37.20;22.45;;;;;;;;;;10207056;28;20526;-83
2023/12/18 16:09:36;;;;;;;54.10;28.30;;;;;;;;;;10203974;28;20454;-82
2023/12/18 16:14:39;;;;;;;67.77;35.50;;;;;;;;;;10200951;28;20437;-84
2023/12/18 16:19:42;;;;;;;62.83;33.97;;;;;;;;;;10202590;28;21213;-84
2023/12/18 16:24:45;;;;;;;64.00;34.97;;;;;;;;;;10204885;28;20519;-84
2023/12/18 16:57:49;;;;;;;43.60;25.90;;;;;;;;;;10579131;27;20371;-83
2023/12/18 17:02:52;;;;;;;46.83;28.53;;;;;;;;;;10560245;27;21113;-83
2023/12/18 17:07:54;;;;;;;44.73;28.97;;;;;;;;;;10555839;28;20521;-82
2023/12/18 17:12:58;;;;;;;46.00;26.63;;;;;;;;;;10557383;27;20462;-84
2023/12/18 17:18:00;;;;;;;39.23;27.60;;;;;;;;;;10561322;28;20445;-84
2023/12/18 17:23:03;;;;;;;43.75;28.27;;;;;;;;;;10553446;27;20469;-84
2023/12/18 17:28:07;;;;;;;47.13;29.05;;;;;;;;;;10560855;28;20447;-83
2023/12/18 17:33:09;;;;;;;50.47;30.00;;;;;;;;;;10564949;27;20444;-82
2023/12/18 17:38:11;;;;;;;47.83;30.73;;;;;;;;;;10552515;28;20506;-83
2023/12/18 17:43:15;;;;;;;52.50;31.63;;;;;;;;;;10556614;28;20547;-84
2023/12/18 17:48:18;;;;;;;52.45;32.67;;;;;;;;;;10551779;28;20447;-84
2023/12/18 17:53:20;;;;;;;51.33;34.53;;;;;;;;;;10556446;27;20502;-83
2023/12/18 17:58:24;;;;;;;57.28;37.60;;;;;;;;;;10549715;28;20924;-84
2023/12/18 18:03:26;;;;;;;60.87;37.57;;;;;;;;;;10549330;27;20992;-83
2023/12/18 18:08:29;;;;;;;60.33;37.13;;;;;;;;;;10526638;28;20485;-86
2023/12/18 18:13:39;;;;;;;65.03;39.73;;;;;;;;;;10536982;28;20493;-84
2023/12/18 18:18:52;;;;;;;69.28;42.95;;;;;;;;;;10527939;28;20494;-84
2023/12/18 18:23:59;;;;;;;63.72;41.28;;;;;;;;;;10518965;28;20486;-84
2023/12/18 18:29:04;;;;;;;64.93;42.17;;;;;;;;;;10521499;28;20432;-84
2023/12/18 18:34:08;;;;;;;68.37;43.40;;;;;;;;;;10529327;28;20462;-85
2023/12/18 18:44:50;;;;;;;73.77;47.90;;;;;;;;;;10530899;28;25224;-84
2023/12/18 18:49:59;;;;;;;73.03;46.77;;;;;;;;;;10527519;27;25223;-84
2023/12/18 18:55:05;;;;;;;72.07;45.80;;;;;;;;;;10519017;28;25126;-86
2023/12/18 19:00:10;;;;;;;70.00;45.58;;;;;;;;;;10527689;28;20499;-87
2023/12/18 19:05:16;;;;;;;75.65;46.45;;;;;;;;;;10531676;28;20430;-88
2023/12/18 19:10:24;;;;;;;83.18;49.55;;;;;;;;;;10529127;28;20735;-88
2023/12/18 19:15:30;;;;;;;88.07;51.45;;;;;;;;;;10525569;28;20503;-87
2023/12/18 19:20:34;;;;;;;84.18;51.78;;;;;;;;;;10518873;28;20463;-85
2023/12/18 19:25:44;;;;;;;90.43;54.97;;;;;;;;;;10524913;28;20516;-85
2023/12/18 19:30:55;;;;;;;100.95;57.38;;;;;;;;;;10526376;28;25059;-84
2023/12/18 19:36:06;;;;;;;92.63;54.77;;;;;;;;;;10522817;28;25146;-84
2023/12/18 19:41:24;;;;;;;89.05;52.97;;;;;;;;;;10544967;28;20455;-85
2023/12/18 19:46:30;;;;;;;83.65;54.47;;;;;;;;;;10532143;28;20435;-84
2023/12/18 19:51:36;;;;;;;88.45;53.67;;;;;;;;;;10534922;28;20804;-84
2023/12/18 19:56:47;;;;;;;86.55;52.83;;;;;;;;;;10518808;28;20491;-83
2023/12/18 20:01:56;;;;;;;83.43;51.92;;;;;;;;;;10519157;28;25128;-84
2023/12/18 20:06:59;;;;;;;84.90;50.92;;;;;;;;;;10518924;28;20468;-85
2023/12/18 20:12:03;;;;;;;86.80;52.42;;;;;;;;;;10528060;27;20591;-85
2023/12/18 20:17:07;;;;;;;87.13;51.65;;;;;;;;;;10537173;28;20473;-85
2023/12/18 20:22:11;;;;;;;83.57;48.65;;;;;;;;;;10530726;28;20416;-85
2023/12/18 20:27:15;;;;;;;67.50;41.60;;;;;;;;;;10531047;28;20459;-85
2023/12/18 20:32:19;;;;;;;68.28;42.42;;;;;;;;;;10533148;28;20948;-84
2023/12/18 20:37:22;;;;;;;68.93;43.40;;;;;;;;;;10524212;28;20444;-84
2023/12/18 20:42:25;;;;;;;64.95;39.90;;;;;;;;;;10535257;28;20522;-84
2023/12/18 20:47:28;;;;;;;62.40;39.13;;;;;;;;;;10524916;28;20770;-84
2023/12/18 20:52:31;;;;;;;64.50;39.85;;;;;;;;;;10520213;27;20451;-84
2023/12/18 20:57:33;;;;;;;64.88;40.90;;;;;;;;;;10529876;28;20924;-83
2023/12/18 21:02:37;;;;;;;61.13;38.13;;;;;;;;;;10527628;28;20414;-85
2023/12/18 21:07:39;;;;;;;58.13;38.53;;;;;;;;;;10523754;27;20413;-85
2023/12/18 21:12:41;;;;;;;60.47;38.90;;;;;;;;;;10524172;28;20978;-83
2023/12/18 21:17:45;;;;;;;66.15;41.83;;;;;;;;;;10521145;28;20484;-84
2023/12/18 21:22:50;;;;;;;65.57;40.15;;;;;;;;;;10517053;28;20504;-85
2023/12/18 21:27:52;;;;;;;64.13;40.23;;;;;;;;;;10529189;28;20477;-84
2023/12/18 21:32:56;;;;;;;63.55;39.80;;;;;;;;;;10521281;28;20478;-85
2023/12/18 21:37:58;;;;;;;65.67;40.87;;;;;;;;;;10515453;28;20505;-84
2023/12/18 21:43:01;;;;;;;64.70;40.47;;;;;;;;;;10532037;28;20496;-84
2023/12/18 21:48:06;;;;;;;65.03;42.45;;;;;;;;;;10534034;28;20448;-84
2023/12/18 21:53:09;;;;;;;63.53;40.67;;;;;;;;;;10525792;28;20445;-84
2023/12/18 21:58:11;;;;;;;67.50;40.22;;;;;;;;;;10532054;28;20470;-85
2023/12/18 22:03:16;;;;;;;65.03;41.47;;;;;;;;;;10536990;27;20430;-84
2023/12/18 22:08:19;;;;;;;67.20;40.72;;;;;;;;;;10533674;28;20543;-84
2023/12/18 22:13:21;;;;;;;66.53;40.67;;;;;;;;;;10530108;28;20439;-84
2023/12/18 22:18:25;;;;;;;64.47;40.33;;;;;;;;;;10529174;28;20898;-85
2023/12/18 22:23:27;;;;;;;63.33;39.70;;;;;;;;;;10533615;28;20452;-84
2023/12/18 22:28:32;;;;;;;63.67;39.90;;;;;;;;;;10528565;28;20463;-85
2023/12/18 22:33:36;;;;;;;60.22;38.17;;;;;;;;;;10526327;28;20436;-84
2023/12/18 22:38:38;;;;;;;64.13;39.67;;;;;;;;;;10527412;28;20499;-84
2023/12/18 22:43:41;;;;;;;61.03;38.25;;;;;;;;;;10526937;28;20489;-85
2023/12/18 22:48:45;;;;;;;64.72;39.10;;;;;;;;;;10530432;28;20439;-85
2023/12/18 22:53:47;;;;;;;68.45;40.65;;;;;;;;;;10536704;28;20416;-85
2023/12/18 22:58:49;;;;;;;64.13;41.47;;;;;;;;;;10542179;28;20416;-85
2023/12/18 23:03:53;;;;;;;66.88;40.22;;;;;;;;;;10534986;28;20400;-85
2023/12/18 23:08:56;;;;;;;67.82;41.17;;;;;;;;;;10533580;28;20420;-84
2023/12/18 23:14:14;;;;;;;70.15;43.80;;;;;;;;;;10529165;28;20392;-85
2023/12/18 23:19:18;;;;;;;69.88;41.70;;;;;;;;;;10539436;28;20408;-85
2023/12/18 23:24:20;;;;;;;75.68;43.20;;;;;;;;;;10537954;28;20410;-85
2023/12/18 23:29:23;;;;;;;66.57;41.03;;;;;;;;;;10540206;28;20441;-85
2023/12/18 23:34:27;;;;;;;64.00;40.25;;;;;;;;;;10539095;28;20450;-85
2023/12/18 23:39:29;;;;;;;65.68;40.08;;;;;;;;;;10532506;28;20461;-86
2023/12/18 23:44:31;;;;;;;59.57;38.37;;;;;;;;;;10525399;28;20547;-85
2023/12/18 23:49:35;;;;;;;61.28;38.00;;;;;;;;;;10537334;28;20925;-85
2023/12/18 23:54:38;;;;;;;58.20;37.07;;;;;;;;;;10539948;28;20474;-85
2023/12/18 23:59:41;;;;;;;58.42;36.25;;;;;;;;;;10546392;28;20459;-85
